Time;durP1;ratioP1;P1;durP2;ratioP2;P2;SDS_P1;SDS_P2;PMS_P1;PMS_P2;Temp;Humidity;BMP_temperature;BMP_pressure;BME280_temperature;BME280_humidity;BME280_pressure;Samples;Min_cycle;Max_cycle;Signal;HPM_P1;HPM_P2
2022/08/28 00:00:08;;;;;;;15.07;6.03;;;;;;;21.47;64.42;96827.38;5089290;28;20675;-71
2022/08/28 00:02:36;;;;;;;21.43;8.07;;;;;;;21.45;64.38;96822.22;5090161;28;20565;-71
2022/08/28 00:05:04;;;;;;;21.23;10.00;;;;;;;21.38;64.61;96833.47;5090571;28;20185;-71
2022/08/28 00:07:31;;;;;;;24.50;10.27;;;;;;;21.32;64.63;96831.41;5090319;28;20182;-71
2022/08/28 00:09:58;;;;;;;20.37;9.90;;;;;;;21.04;65.95;96836.56;5090266;28;20257;-73
2022/08/28 00:12:26;;;;;;;16.23;10.13;;;;;;;20.92;66.16;96837.63;5090183;28;20201;-73
2022/08/28 00:14:53;;;;;;;22.70;11.13;;;;;;;20.91;66.20;96836.00;5090248;28;20646;-73
2022/08/28 00:17:20;;;;;;;23.27;10.70;;;;;;;20.96;66.06;96841.66;5090896;28;20254;-73
2022/08/28 00:19:47;;;;;;;20.97;9.30;;;;;;;21.10;65.63;96829.91;5088664;28;20243;-73
2022/08/28 00:22:15;;;;;;;18.47;8.63;;;;;;;20.97;65.97;96838.06;5090550;28;20285;-73
2022/08/28 00:24:43;;;;;;;20.23;9.47;;;;;;;20.94;66.28;96833.06;5090036;28;20250;-73
2022/08/28 00:29:56;;;;;;;17.40;8.97;;;;;;;20.87;66.45;96833.75;5089968;28;20639;-71
2022/08/28 00:32:24;;;;;;;17.67;8.77;;;;;;;20.89;66.34;96832.66;5089900;28;20216;-71
2022/08/28 00:34:51;;;;;;;24.30;9.63;;;;;;;20.73;66.68;96821.81;5090210;28;20312;-71
2022/08/28 00:37:18;;;;;;;17.43;8.93;;;;;;;20.78;66.53;96819.63;5088455;28;20258;-71
2022/08/28 00:39:50;;;;;;;21.27;9.03;;;;;;;20.78;66.19;96824.88;5089858;28;20216;-71
2022/08/28 00:42:17;;;;;;;19.63;9.97;;;;;;;20.92;65.69;96827.09;5089662;28;20752;-71
2022/08/28 00:44:44;;;;;;;19.87;9.70;;;;;;;20.96;65.40;96828.50;5089455;28;20273;-71
2022/08/28 00:47:11;;;;;;;22.10;9.03;;;;;;;20.91;65.50;96820.19;5089750;28;20220;-72
2022/08/28 00:49:51;;;;;;;22.10;8.03;;;;;;;21.15;64.85;96821.56;5089696;28;20188;-72
2022/08/28 00:52:20;;;;;;;20.20;8.13;;;;;;;21.18;64.93;96822.16;5090018;28;20676;-71
2022/08/28 00:54:52;;;;;;;21.03;8.77;;;;;;;21.13;64.78;96824.34;5089539;28;20226;-71
2022/08/28 00:57:50;;;;;;;15.90;7.67;;;;;;;21.13;64.66;96829.63;5089523;28;20192;-71
2022/08/28 01:00:33;;;;;;;20.87;8.53;;;;;;;21.00;64.90;96808.81;5089519;28;20189;-72
2022/08/28 01:03:01;;;;;;;23.70;8.40;;;;;;;21.06;64.83;96825.91;5072132;28;20204;-73
2022/08/28 01:05:28;;;;;;;22.07;8.27;;;;;;;21.09;64.35;96807.19;5069101;28;20178;-73
2022/08/28 01:07:57;;;;;;;14.67;7.27;;;;;;;21.39;63.83;96809.63;5068899;28;20665;-73
2022/08/28 01:10:28;;;;;;;17.43;9.10;;;;;;;21.56;63.26;96818.59;5067715;28;20343;-73
2022/08/28 01:12:56;;;;;;;23.20;9.27;;;;;;;21.61;62.81;96813.72;5069149;28;20186;-72
2022/08/28 01:15:34;;;;;;;20.53;8.40;;;;;;;21.50;63.11;96809.47;5073641;28;20810;-72
2022/08/28 01:18:06;;;;;;;17.80;8.83;;;;;;;21.41;63.87;96815.56;5079074;28;20236;-72
2022/08/28 01:20:46;;;;;;;19.03;9.13;;;;;;;21.49;63.35;96807.81;5068574;28;20280;-71
2022/08/28 01:23:16;;;;;;;15.70;7.93;;;;;;;21.65;62.97;96818.59;5068929;28;20222;-72
2022/08/28 01:25:43;;;;;;;27.07;7.93;;;;;;;21.53;63.51;96816.25;5068691;28;20324;-72
2022/08/28 01:28:12;;;;;;;22.53;7.83;;;;;;;21.65;63.47;96820.38;5083876;28;20683;-72
2022/08/28 01:30:43;;;;;;;21.77;7.63;;;;;;;21.48;64.06;96829.00;5087563;28;20264;-72
2022/08/28 01:33:13;;;;;;;17.27;7.93;;;;;;;21.29;64.16;96826.44;5088566;28;20195;-72
2022/08/28 01:35:44;;;;;;;15.07;7.03;;;;;;;21.04;64.59;96794.41;5088894;28;20194;-73
2022/08/28 01:38:11;;;;;;;13.03;7.57;;;;;;;21.17;64.79;96825.75;5086987;28;20268;-71
2022/08/28 01:40:48;;;;;;;14.40;7.40;;;;;;;20.90;65.85;96831.69;5088444;28;20195;-71
2022/08/28 01:43:22;;;;;;;17.50;7.50;;;;;;;20.49;67.39;96828.44;5088168;28;20555;-72
2022/08/28 01:45:53;;;;;;;17.67;7.40;;;;;;;20.33;67.91;96823.72;5086894;28;20214;-72
2022/08/28 01:48:22;;;;;;;15.57;7.00;;;;;;;20.17;68.77;96826.00;5088664;28;20835;-72
2022/08/28 01:50:50;;;;;;;18.93;7.53;;;;;;;20.13;69.31;96829.88;5088623;28;20651;-73
2022/08/28 01:53:22;;;;;;;15.87;6.90;;;;;;;20.07;69.86;96828.59;5088771;28;20228;-72
2022/08/28 01:55:53;;;;;;;20.40;8.17;;;;;;;20.02;69.48;96820.28;5088250;28;20184;-72
2022/08/28 01:58:21;;;;;;;23.13;7.43;;;;;;;19.94;69.79;96821.91;5088005;28;20863;-72
2022/08/28 02:00:52;;;;;;;16.97;7.20;;;;;;;19.89;70.01;96817.03;5088306;28;20295;-71
2022/08/28 02:03:21;;;;;;;21.50;7.80;;;;;;;19.92;70.05;96826.47;5088058;28;20196;-71
2022/08/28 02:05:48;;;;;;;15.73;7.50;;;;;;;20.00;69.31;96821.38;5087142;28;20192;-71
2022/08/28 02:08:15;;;;;;;14.00;6.87;;;;;;;19.95;69.70;96821.75;5087853;28;20765;-71
2022/08/28 02:10:42;;;;;;;19.33;7.67;;;;;;;19.83;69.85;96832.50;5088231;28;20222;-72
2022/08/28 02:13:11;;;;;;;17.37;7.57;;;;;;;19.62;70.75;96821.22;5086970;28;20693;-72
2022/08/28 02:15:39;;;;;;;13.57;6.77;;;;;;;19.41;71.54;96816.81;5087803;28;20720;-71
2022/08/28 02:18:06;;;;;;;22.23;8.17;;;;;;;19.43;71.97;96816.69;5086328;28;20660;-72
2022/08/28 02:20:33;;;;;;;12.30;6.43;;;;;;;19.33;71.59;96815.78;5087942;28;20241;-71
2022/08/28 02:23:00;;;;;;;19.97;8.00;;;;;;;19.35;71.75;96822.56;5088132;28;20215;-71
2022/08/28 02:25:28;;;;;;;18.37;7.70;;;;;;;19.35;71.18;96822.56;5087582;28;20287;-72
2022/08/28 02:27:55;;;;;;;15.73;7.23;;;;;;;19.37;71.21;96823.28;5086530;28;20191;-73
2022/08/28 02:30:23;;;;;;;19.53;7.07;;;;;;;19.38;70.78;96822.31;5087479;28;20192;-72
2022/08/28 02:32:50;;;;;;;17.63;7.73;;;;;;;19.39;70.14;96828.44;5087637;28;20184;-71
2022/08/28 02:35:19;;;;;;;19.00;7.57;;;;;;;19.51;69.62;96829.16;5087557;28;20280;-71
2022/08/28 02:37:46;;;;;;;17.00;7.73;;;;;;;19.54;69.20;96816.59;5087380;28;20201;-72
2022/08/28 02:40:17;;;;;;;18.23;8.07;;;;;;;19.60;69.04;96825.78;5087633;28;20607;-72
2022/08/28 02:42:44;;;;;;;16.90;7.13;;;;;;;19.70;68.88;96824.03;5087322;28;20188;-72
2022/08/28 02:45:13;;;;;;;15.90;7.23;;;;;;;19.92;67.63;96816.78;5087535;28;20314;-72
2022/08/28 02:47:42;;;;;;;15.13;6.80;;;;;;;19.99;67.26;96819.72;5087155;28;20202;-72
2022/08/28 02:50:12;;;;;;;16.90;7.93;;;;;;;19.91;67.59;96827.41;5087256;28;20196;-72
2022/08/28 02:52:40;;;;;;;16.63;7.03;;;;;;;19.84;67.58;96832.41;5087289;28;20253;-73
2022/08/28 02:55:09;;;;;;;24.40;8.10;;;;;;;19.87;67.74;96826.00;5068936;28;20579;-72
2022/08/28 02:57:36;;;;;;;13.80;7.57;;;;;;;19.94;67.30;96829.78;5087590;28;20200;-72
2022/08/28 03:00:05;;;;;;;19.20;7.27;;;;;;;19.96;67.35;96820.81;5086906;28;20702;-75
2022/08/28 03:02:32;;;;;;;15.63;7.57;;;;;;;20.34;66.29;96835.09;5087936;28;20191;-73
2022/08/28 03:04:59;;;;;;;21.40;7.20;;;;;;;20.48;65.36;96843.41;5086974;28;20202;-73
2022/08/28 03:07:28;;;;;;;15.73;6.70;;;;;;;20.60;65.21;96841.50;5085530;28;20211;-73
2022/08/28 03:09:55;;;;;;;13.27;7.43;;;;;;;20.60;64.42;96829.19;5086919;28;20188;-71
2022/08/28 03:12:23;;;;;;;19.23;7.50;;;;;;;20.69;64.70;96836.22;5087079;28;20184;-72
2022/08/28 03:14:50;;;;;;;17.37;7.53;;;;;;;20.79;64.20;96837.06;5085859;28;20191;-72
2022/08/28 03:17:18;;;;;;;20.40;7.23;;;;;;;20.65;64.36;96841.94;5086749;28;20222;-71
2022/08/28 03:19:45;;;;;;;19.33;7.23;;;;;;;20.54;64.91;96848.16;5087512;28;20227;-73
2022/08/28 03:22:12;;;;;;;18.23;7.13;;;;;;;20.52;64.85;96852.72;5086723;28;20184;-73
2022/08/28 03:24:40;;;;;;;28.27;7.53;;;;;;;20.38;65.55;96845.16;5085047;28;20216;-72
2022/08/28 03:27:07;;;;;;;18.57;6.93;;;;;;;20.39;65.32;96841.59;5085252;28;20220;-71
2022/08/28 03:29:35;;;;;;;16.60;6.93;;;;;;;20.40;65.54;96838.00;5086523;28;20731;-73
2022/08/28 03:32:02;;;;;;;19.50;7.63;;;;;;;20.40;65.12;96840.63;5086925;28;20184;-72
2022/08/28 03:34:29;;;;;;;17.80;6.83;;;;;;;20.39;65.42;96828.44;5085083;28;20221;-73
2022/08/28 03:36:56;;;;;;;14.43;7.33;;;;;;;20.44;65.36;96846.47;5087172;28;20185;-72
2022/08/28 03:39:23;;;;;;;16.33;7.57;;;;;;;20.44;65.21;96849.94;5086491;28;20302;-73
2022/08/28 03:41:50;;;;;;;19.47;7.07;;;;;;;20.26;65.72;96844.47;5086764;28;20777;-72
2022/08/28 03:44:17;;;;;;;14.53;7.10;;;;;;;20.15;65.77;96833.19;5086391;28;20360;-72
2022/08/28 03:46:45;;;;;;;20.10;7.67;;;;;;;20.03;66.48;96844.78;5086555;28;20222;-72
2022/08/28 03:49:13;;;;;;;14.33;7.37;;;;;;;20.07;66.54;96840.91;5086684;28;20221;-72
2022/08/28 03:51:40;;;;;;;17.80;7.20;;;;;;;19.88;67.42;96849.56;5085096;28;20218;-74
2022/08/28 03:54:47;;;;;;;16.00;7.13;;;;;;;19.97;66.87;96853.19;5086963;28;20576;-74
2022/08/28 03:58:08;;;;;;;15.53;7.17;;;;;;;19.76;67.61;96857.66;5085951;28;20192;-73
2022/08/28 04:01:28;;;;;;;17.30;6.63;;;;;;;19.68;67.51;96842.53;5085823;28;20223;-74
2022/08/28 04:04:49;;;;;;;20.10;7.43;;;;;;;19.80;67.42;96852.03;5083924;28;20192;-72
2022/08/28 04:08:11;;;;;;;13.97;6.70;;;;;;;19.92;67.18;96858.00;5086133;28;20282;-73
2022/08/28 04:11:31;;;;;;;13.00;6.73;;;;;;;20.04;67.11;96856.94;5073005;28;20233;-73
2022/08/28 04:14:53;;;;;;;20.80;6.90;;;;;;;20.52;65.95;96871.13;5066182;28;20249;-73
2022/08/28 04:18:13;;;;;;;20.30;7.33;;;;;;;20.77;64.55;96862.69;5076540;28;20200;-73
2022/08/28 04:21:38;;;;;;;17.50;7.77;;;;;;;21.03;63.60;96858.59;5065657;28;20227;-75
2022/08/28 04:24:59;;;;;;;12.10;7.13;;;;;;;21.26;62.58;96853.88;5066285;28;20185;-75
2022/08/28 04:28:20;;;;;;;20.33;7.30;;;;;;;21.22;62.81;96860.41;5045573;28;20194;-74
2022/08/28 04:31:41;;;;;;;19.03;8.10;;;;;;;21.32;62.89;96870.94;5045541;28;20182;-74
2022/08/28 04:35:02;;;;;;;13.43;7.47;;;;;;;21.35;62.34;96873.28;5045643;28;20740;-72
2022/08/28 04:38:22;;;;;;;13.70;6.37;;;;;;;21.81;61.40;96868.06;5048114;28;20195;-74
2022/08/28 04:41:43;;;;;;;14.70;6.97;;;;;;;21.94;60.62;96868.63;5049511;28;20260;-74
2022/08/28 04:45:03;;;;;;;14.00;6.63;;;;;;;21.58;61.81;96870.19;5049065;28;20226;-74
2022/08/28 04:48:24;;;;;;;14.70;6.80;;;;;;;21.31;62.74;96870.09;5048647;28;20182;-73
2022/08/28 04:51:45;;;;;;;23.57;7.40;;;;;;;21.48;62.60;96871.19;5049044;28;20566;-75
2022/08/28 04:55:06;;;;;;;21.17;6.97;;;;;;;21.53;62.24;96863.69;5049363;28;20194;-75
2022/08/28 04:58:26;;;;;;;20.70;6.87;;;;;;;21.49;62.65;96875.50;5048848;28;20191;-73
2022/08/28 05:01:47;;;;;;;16.60;7.33;;;;;;;21.62;62.52;96868.09;5048338;28;20253;-74
2022/08/28 05:05:08;;;;;;;19.03;6.73;;;;;;;21.71;61.96;96867.25;5046431;28;20194;-74
2022/08/28 05:08:28;;;;;;;16.20;7.47;;;;;;;21.67;62.83;96864.09;5048776;28;20213;-73
2022/08/28 05:11:52;;;;;;;15.60;7.87;;;;;;;21.88;61.93;96873.63;5048625;28;20752;-75
2022/08/28 05:15:13;;;;;;;20.23;8.70;;;;;;;22.04;61.72;96863.28;5048146;28;20191;-74
2022/08/28 05:18:33;;;;;;;16.60;6.87;;;;;;;21.95;61.89;96837.81;5047688;28;20281;-73
2022/08/28 05:21:54;;;;;;;16.63;6.77;;;;;;;22.59;60.91;96871.09;5047993;28;20283;-73
2022/08/28 05:25:14;;;;;;;17.77;6.30;;;;;;;22.64;59.90;96875.94;5048036;28;20195;-72
2022/08/28 05:28:35;;;;;;;18.03;6.60;;;;;;;23.01;59.17;96878.47;5046029;28;20188;-72
2022/08/28 05:31:55;;;;;;;16.00;6.70;;;;;;;22.96;59.02;96878.91;5047548;28;20191;-72
2022/08/28 05:35:16;;;;;;;18.13;6.60;;;;;;;23.18;59.13;96873.22;5031360;28;20183;-73
2022/08/28 05:38:37;;;;;;;22.03;7.27;;;;;;;23.43;58.05;96887.50;5048018;28;20194;-74
2022/08/28 05:42:00;;;;;;;13.93;6.83;;;;;;;23.89;56.40;96881.88;5047695;28;20663;-73
2022/08/28 05:45:21;;;;;;;19.93;6.73;;;;;;;24.01;55.56;96879.78;5045269;28;20230;-73
2022/08/28 05:48:42;;;;;;;21.63;6.57;;;;;;;23.99;55.66;96887.88;5047448;28;20271;-74
2022/08/28 05:52:02;;;;;;;17.77;6.30;;;;;;;23.99;55.30;96856.13;5047829;28;20242;-75
2022/08/28 05:54:43;;;;;;;18.40;7.10;;;;;;;24.45;55.08;96883.16;5047600;28;20578;-75
2022/08/28 05:57:10;;;;;;;13.57;6.30;;;;;;;24.44;54.69;96886.81;5046315;28;20712;-74
2022/08/28 05:59:37;;;;;;;18.27;6.27;;;;;;;24.60;54.69;96893.00;5048308;28;20282;-73
2022/08/28 06:02:04;;;;;;;13.70;6.23;;;;;;;24.75;54.37;96895.91;5047778;28;20191;-74
2022/08/28 06:04:31;;;;;;;19.03;7.20;;;;;;;25.09;54.38;96894.00;5029679;28;20221;-73
2022/08/28 06:06:59;;;;;;;14.37;7.43;;;;;;;25.27;53.57;96889.38;5046208;28;20192;-73
2022/08/28 06:09:27;;;;;;;12.87;6.43;;;;;;;25.27;53.64;96892.03;5046173;28;20190;-73
2022/08/28 06:11:58;;;;;;;23.47;8.33;;;;;;;25.32;53.60;96888.88;5046219;28;20277;-73
2022/08/28 06:14:28;;;;;;;15.77;7.57;;;;;;;25.36;53.44;96893.69;5047070;28;20689;-74
2022/08/28 06:16:56;;;;;;;16.13;7.40;;;;;;;25.47;53.22;96898.69;5029720;28;20291;-75
2022/08/28 06:19:25;;;;;;;21.13;7.90;;;;;;;25.18;53.92;96903.63;5046922;28;20216;-75
2022/08/28 06:21:56;;;;;;;23.33;7.80;;;;;;;25.15;54.16;96896.00;5047211;28;20211;-73
2022/08/28 06:24:24;;;;;;;15.70;7.20;;;;;;;25.41;54.61;96901.19;5046956;28;20278;-73
2022/08/28 06:26:51;;;;;;;14.17;6.60;;;;;;;25.71;52.67;96905.81;5047050;28;20215;-74
2022/08/28 06:29:22;;;;;;;19.80;9.10;;;;;;;25.90;52.36;96896.69;5046840;28;20281;-73
2022/08/28 06:32:00;;;;;;;27.20;10.50;;;;;;;26.25;51.59;96902.47;5046552;28;20289;-74
2022/08/28 06:34:27;;;;;;;23.97;11.90;;;;;;;26.41;50.46;96904.22;5012639;28;20227;-74
2022/08/28 06:36:55;;;;;;;29.10;16.40;;;;;;;26.37;50.30;96900.25;5062051;28;20215;-75
2022/08/28 06:39:25;;;;;;;24.70;15.37;;;;;;;26.63;50.04;96900.81;5045316;28;20228;-72
2022/08/28 06:41:52;;;;;;;33.73;19.73;;;;;;;26.65;49.97;96898.81;5046745;28;20189;-72
2022/08/28 06:44:20;;;;;;;30.63;20.43;;;;;;;26.71;50.06;96898.13;5046514;28;20771;-72
2022/08/28 06:46:51;;;;;;;31.60;16.83;;;;;;;26.82;49.55;96899.59;5045557;28;20190;-74
2022/08/28 06:49:19;;;;;;;27.83;12.83;;;;;;;27.10;48.02;96901.59;5045073;28;20196;-74
2022/08/28 06:51:46;;;;;;;18.43;9.90;;;;;;;27.11;48.34;96899.75;5028931;28;20307;-75
2022/08/28 06:54:16;;;;;;;16.17;10.90;;;;;;;26.99;48.17;96895.84;5046258;28;20208;-75
2022/08/28 06:56:49;;;;;;;20.50;11.73;;;;;;;27.17;48.07;96893.75;5045174;28;20692;-74
2022/08/28 06:59:16;;;;;;;21.37;11.03;;;;;;;27.28;47.88;96893.34;5045781;28;20786;-72
2022/08/28 07:01:44;;;;;;;21.50;11.77;;;;;;;27.38;48.14;96899.28;5046417;28;20182;-73
2022/08/28 07:04:13;;;;;;;21.60;11.83;;;;;;;27.39;48.57;96899.09;5061896;28;20202;-74
2022/08/28 07:06:44;;;;;;;20.07;10.87;;;;;;;27.66;48.01;96900.38;5046508;28;20190;-74
2022/08/28 07:09:13;;;;;;;27.30;9.77;;;;;;;27.89;46.75;96903.84;5046469;28;20186;-73
2022/08/28 07:11:43;;;;;;;22.90;10.43;;;;;;;28.00;46.46;96891.97;5047297;28;20630;-75
2022/08/28 07:14:10;;;;;;;26.33;9.47;;;;;;;28.04;47.04;96898.56;5079577;28;20197;-76
2022/08/28 07:16:38;;;;;;;15.33;8.73;;;;;;;28.05;47.06;96901.03;5065967;28;20288;-75
2022/08/28 07:19:07;;;;;;;20.80;8.27;;;;;;;28.10;45.74;96898.69;5065957;28;20213;-76
2022/08/28 07:21:42;;;;;;;21.10;8.10;;;;;;;28.11;45.76;96896.81;5067240;28;20185;-75
2022/08/28 07:24:12;;;;;;;20.97;6.90;;;;;;;28.39;45.21;96902.34;5082029;28;20258;-76
2022/08/28 07:26:40;;;;;;;13.17;7.13;;;;;;;28.58;44.63;96894.69;5084984;28;20181;-73
2022/08/28 07:29:07;;;;;;;19.03;7.73;;;;;;;28.70;44.04;96895.84;5086331;28;20246;-73
2022/08/28 07:31:40;;;;;;;19.30;8.17;;;;;;;28.62;44.57;96895.97;5085202;28;20200;-76
2022/08/28 07:34:09;;;;;;;19.13;7.40;;;;;;;28.79;44.40;96892.06;5085188;28;20249;-75
2022/08/28 07:36:36;;;;;;;17.53;7.37;;;;;;;29.00;43.77;96896.59;5085042;28;20185;-75
2022/08/28 07:39:04;;;;;;;18.30;6.33;;;;;;;29.16;42.17;96885.72;5067416;28;20204;-76
2022/08/28 07:41:35;;;;;;;18.90;5.97;;;;;;;29.39;40.84;96889.06;5065577;28;20185;-75
2022/08/28 07:46:53;;;;;;;20.70;7.03;;;;;;;29.23;41.26;96885.81;5065852;28;20548;-74
2022/08/28 07:49:21;;;;;;;13.43;6.30;;;;;;;29.21;41.21;96883.34;5066018;28;20190;-76
2022/08/28 07:51:48;;;;;;;14.97;6.10;;;;;;;29.23;41.04;96885.81;5066241;28;20200;-76
2022/08/28 07:54:20;;;;;;;17.93;5.93;;;;;;;29.29;41.01;96872.53;5065940;28;20185;-75
2022/08/28 07:56:47;;;;;;;10.70;5.80;;;;;;;29.07;40.82;96891.34;5048515;28;20193;-72
2022/08/28 07:59:16;;;;;;;17.17;7.50;;;;;;;29.20;41.70;96888.88;5065786;28;20678;-73
2022/08/28 08:01:47;;;;;;;21.60;6.30;;;;;;;29.45;41.14;96882.16;5066062;28;20215;-74
2022/08/28 08:04:16;;;;;;;15.27;6.57;;;;;;;29.70;40.73;96881.53;5064467;28;20185;-74
2022/08/28 08:06:43;;;;;;;14.27;6.10;;;;;;;29.75;40.01;96883.66;5064139;28;20185;-74
2022/08/28 08:09:13;;;;;;;31.93;10.23;;;;;;;29.92;40.74;96879.69;5064667;28;20206;-75
2022/08/28 08:11:41;;;;;;;22.57;6.97;;;;;;;29.97;39.93;96874.59;5068074;28;20759;-74
2022/08/28 08:14:09;;;;;;;18.43;6.27;;;;;;;29.98;39.59;96873.59;5069900;28;20708;-74
2022/08/28 08:16:40;;;;;;;18.60;6.63;;;;;;;30.17;39.47;96880.88;5069606;28;20265;-75
2022/08/28 08:19:08;;;;;;;15.50;6.43;;;;;;;30.37;38.85;96881.88;5069540;28;20267;-74
2022/08/28 08:21:36;;;;;;;17.43;6.87;;;;;;;30.39;38.12;96881.69;5051530;28;20299;-74
2022/08/28 08:24:04;;;;;;;15.67;6.43;;;;;;;30.58;37.60;96864.09;5080661;28;20200;-74
2022/08/28 08:26:32;;;;;;;13.43;6.10;;;;;;;30.75;36.89;96868.88;5078627;28;20734;-74
2022/08/28 08:28:59;;;;;;;16.33;5.80;;;;;;;30.92;37.58;96877.41;5069053;28;20185;-74
2022/08/28 08:31:31;;;;;;;21.20;7.77;;;;;;;31.02;36.68;96875.19;5069665;28;20185;-73
2022/08/28 08:34:02;;;;;;;16.33;5.30;;;;;;;31.19;36.00;96868.44;5069258;28;20181;-73
2022/08/28 08:36:36;;;;;;;13.47;5.63;;;;;;;31.24;35.96;96874.81;5036343;28;20614;-74
2022/08/28 08:39:06;;;;;;;21.97;12.60;;;;;;;31.21;35.95;96869.91;5069418;28;20189;-74
2022/08/28 08:41:47;;;;;;;12.83;5.50;;;;;;;31.10;35.64;96872.31;5050812;28;20225;-75
2022/08/28 08:44:14;;;;;;;11.83;5.67;;;;;;;31.07;36.01;96868.22;5051344;28;20716;-74
2022/08/28 08:46:51;;;;;;;13.93;5.73;;;;;;;30.94;36.87;96867.34;5068762;28;20186;-74
2022/08/28 08:49:24;;;;;;;10.73;5.33;;;;;;;30.87;36.75;96856.63;5068692;28;20207;-72
2022/08/28 08:52:23;;;;;;;15.13;5.37;;;;;;;31.16;35.59;96867.00;5073146;28;20224;-75
2022/08/28 08:55:08;;;;;;;18.07;6.60;;;;;;;31.39;34.92;96869.34;5068469;28;20723;-74
2022/08/28 08:57:37;;;;;;;14.27;5.40;;;;;;;31.38;34.72;96862.31;5069187;28;20572;-75
2022/08/28 09:00:10;;;;;;;23.50;5.63;;;;;;;31.45;34.59;96862.34;5067531;28;20310;-73
2022/08/28 09:03:11;;;;;;;13.00;5.97;;;;;;;31.52;35.11;96866.69;5068758;28;20193;-73
2022/08/28 09:05:47;;;;;;;15.07;5.50;;;;;;;31.78;33.84;96866.69;5080213;28;20211;-73
2022/08/28 09:08:40;;;;;;;13.37;5.00;;;;;;;31.91;33.79;96864.00;5071708;28;20315;-73
2022/08/28 09:11:43;;;;;;;12.87;5.43;;;;;;;31.89;33.27;96850.00;5053372;28;20737;-73
2022/08/28 09:14:36;;;;;;;10.88;4.78;;;;;;;31.97;32.22;96857.00;5067087;28;20642;-73
2022/08/28 09:17:05;;;;;;;15.82;4.78;;;;;;;32.15;31.43;96856.38;5066715;28;20189;-74
2022/08/28 09:19:33;;;;;;;14.40;5.50;;;;;;;32.05;31.12;96857.63;5066914;28;20284;-74
2022/08/28 09:22:01;;;;;;;10.10;4.43;;;;;;;32.00;30.27;96854.75;5068812;28;20185;-73
2022/08/28 09:24:31;;;;;;;15.27;5.15;;;;;;;31.91;30.16;96837.22;5067953;28;20280;-74
2022/08/28 09:26:58;;;;;;;13.00;4.55;;;;;;;32.10;29.50;96854.31;5067302;28;20654;-73
2022/08/28 09:29:36;;;;;;;12.70;5.03;;;;;;;31.97;29.79;96855.16;5067873;28;20213;-73
2022/08/28 09:32:29;;;;;;;13.30;4.63;;;;;;;31.84;30.53;96851.66;5068673;28;20665;-74
2022/08/28 09:35:07;;;;;;;11.87;4.27;;;;;;;31.89;30.26;96846.47;5062673;28;20681;-75
2022/08/28 09:37:35;;;;;;;16.33;5.37;;;;;;;32.14;31.34;96850.19;5067806;28;20251;-75
2022/08/28 09:40:23;;;;;;;14.27;5.03;;;;;;;32.12;30.98;96840.72;5068705;28;20588;-75
2022/08/28 09:43:26;;;;;;;16.45;5.63;;;;;;;32.25;30.75;96844.19;5066796;28;20305;-74
2022/08/28 09:46:04;;;;;;;16.08;4.60;;;;;;;32.41;30.58;96846.41;5025557;28;20195;-76
2022/08/28 09:48:38;;;;;;;14.73;4.78;;;;;;;32.41;29.64;96850.94;5060050;28;20185;-75
2022/08/28 09:51:07;;;;;;;13.82;5.10;;;;;;;32.41;30.04;96849.09;5049616;28;20197;-74
2022/08/28 09:53:55;;;;;;;15.63;4.70;;;;;;;32.45;30.59;96847.66;5068536;28;20188;-75
2022/08/28 09:56:32;;;;;;;13.05;5.28;;;;;;;32.44;29.63;96845.19;5068320;28;20185;-75
2022/08/28 09:59:16;;;;;;;14.02;4.70;;;;;;;32.68;29.14;96847.19;5050533;28;20189;-74
2022/08/28 10:02:11;;;;;;;10.13;4.20;;;;;;;32.55;29.15;96841.84;5068027;28;20754;-73
2022/08/28 10:05:17;;;;;;;10.98;4.80;;;;;;;32.20;29.89;96837.81;5066225;28;20197;-73
2022/08/28 10:08:00;;;;;;;17.15;4.82;;;;;;;32.44;29.00;96843.28;5061726;28;20254;-74
2022/08/28 10:10:33;;;;;;;11.18;4.95;;;;;;;32.53;29.49;96835.88;5067792;28;20189;-74
2022/08/28 10:13:16;;;;;;;11.27;4.45;;;;;;;32.43;29.42;96830.09;5065898;28;20188;-75
2022/08/28 10:16:08;;;;;;;10.30;4.80;;;;;;;32.21;29.72;96836.78;5065791;28;20217;-74
2022/08/28 10:18:52;;;;;;;18.38;5.10;;;;;;;32.50;29.59;96834.44;5067231;28;20190;-75
2022/08/28 10:21:30;;;;;;;12.95;6.07;;;;;;;32.71;29.21;96831.47;5066696;28;20278;-74
2022/08/28 10:24:25;;;;;;;12.95;4.85;;;;;;;32.63;29.62;96828.19;5066262;28;20876;-75
2022/08/28 10:26:55;;;;;;;10.57;4.40;;;;;;;32.76;29.37;96828.16;5065963;28;20284;-73
2022/08/28 10:29:40;;;;;;;9.18;4.05;;;;;;;32.91;29.05;96812.59;5067976;28;20213;-74
2022/08/28 10:32:31;;;;;;;11.32;4.65;;;;;;;32.90;29.34;96824.38;5075434;28;20943;-73
2022/08/28 10:35:13;;;;;;;16.98;4.88;;;;;;;32.75;30.06;96826.50;5068783;28;20281;-74
2022/08/28 10:38:03;;;;;;;14.07;5.10;;;;;;;33.02;29.98;96821.84;5087943;28;20219;-72
2022/08/28 10:40:39;;;;;;;14.98;5.57;;;;;;;33.13;30.09;96822.00;5062069;28;20285;-74
2022/08/28 10:43:15;;;;;;;10.45;4.72;;;;;;;33.10;29.80;96818.94;5086803;28;20187;-75
2022/08/28 10:45:42;;;;;;;12.80;4.72;;;;;;;33.12;30.10;96817.66;5047000;28;20661;-74
2022/08/28 10:48:27;;;;;;;13.35;4.82;;;;;;;32.66;29.89;96828.63;5046609;28;20342;-73
2022/08/28 10:51:01;;;;;;;15.63;5.20;;;;;;;32.75;29.54;96810.41;5046818;28;20186;-74
2022/08/28 10:53:38;;;;;;;16.17;5.20;;;;;;;32.82;30.06;96816.56;5045698;28;20198;-73
2022/08/28 10:56:14;;;;;;;9.07;4.55;;;;;;;32.61;30.44;96819.53;5046692;28;20185;-74
2022/08/28 10:58:43;;;;;;;10.77;5.10;;;;;;;32.49;29.68;96815.88;5047111;28;20186;-73
2022/08/28 11:01:13;;;;;;;14.32;4.47;;;;;;;32.60;30.13;96820.59;5046421;28;20226;-73
2022/08/28 11:03:45;;;;;;;7.57;4.47;;;;;;;32.52;30.41;96805.53;5061606;28;20280;-74
2022/08/28 11:06:34;;;;;;;12.52;4.63;;;;;;;32.92;29.65;96806.19;5045224;28;20213;-75
2022/08/28 11:09:23;;;;;;;12.43;4.90;;;;;;;33.17;29.40;96812.47;5046370;28;20190;-73
2022/08/28 11:11:58;;;;;;;11.07;4.28;;;;;;;32.99;29.55;96814.22;5046706;28;20268;-75
2022/08/28 11:14:34;;;;;;;14.10;4.70;;;;;;;33.03;29.18;96816.28;5046616;28;20269;-74
2022/08/28 11:17:26;;;;;;;15.02;5.50;;;;;;;33.02;29.58;96806.56;5046213;28;20221;-74
2022/08/28 11:20:06;;;;;;;14.70;4.95;;;;;;;32.79;30.43;96816.97;5047306;28;20264;-73
2022/08/28 11:22:54;;;;;;;17.58;5.38;;;;;;;33.03;29.28;96808.22;5046445;28;20282;-74
2022/08/28 11:25:49;;;;;;;12.68;5.30;;;;;;;33.13;28.85;96818.47;5046462;28;20644;-73
2022/08/28 11:28:22;;;;;;;14.43;4.95;;;;;;;33.09;29.60;96810.03;5046576;28;20218;-73
2022/08/28 11:31:05;;;;;;;15.27;4.97;;;;;;;33.19;29.30;96812.25;5044743;28;20707;-74
2022/08/28 11:33:49;;;;;;;14.50;4.38;;;;;;;33.23;28.39;96813.44;5046165;28;20194;-76
2022/08/28 11:36:19;;;;;;;25.08;5.53;;;;;;;33.12;29.17;96817.66;5046174;28;20270;-73
2022/08/28 11:38:52;;;;;;;13.32;4.85;;;;;;;32.90;28.97;96805.56;5045913;28;20305;-74
2022/08/28 11:41:25;;;;;;;22.55;5.40;;;;;;;32.98;29.80;96805.34;5046334;28;20221;-76
2022/08/28 11:44:08;;;;;;;13.75;4.70;;;;;;;32.82;29.54;96811.19;5054497;28;20741;-76
2022/08/28 11:46:46;;;;;;;10.85;4.40;;;;;;;32.72;30.40;96813.53;5084576;28;20196;-81
2022/08/28 11:49:23;;;;;;;21.92;5.13;;;;;;;32.79;30.20;96812.44;5086391;28;20663;-77
2022/08/28 11:52:05;;;;;;;11.32;5.07;;;;;;;32.83;30.32;96804.78;5068150;28;20191;-77
2022/08/28 11:55:09;;;;;;;16.33;4.93;;;;;;;32.95;30.82;96802.25;5087025;28;20188;-77
2022/08/28 11:58:02;;;;;;;23.05;5.63;;;;;;;32.26;31.75;96799.44;5084948;28;20247;-81
2022/08/28 12:01:02;;;;;;;30.35;7.30;;;;;;;32.16;32.09;96794.53;5081468;28;20176;-79
2022/08/28 12:03:56;;;;;;;21.15;5.95;;;;;;;32.21;31.35;96793.91;5046392;28;20229;-80
2022/08/28 12:07:16;;;;;;;12.02;4.80;;;;;;;31.98;30.67;96791.69;5046424;28;20197;-80
2022/08/28 12:09:47;;;;;;;13.97;5.23;;;;;;;32.01;30.31;96797.44;5044883;28;20202;-82
2022/08/28 12:12:20;;;;;;;11.07;4.67;;;;;;;32.21;30.99;96804.63;5036838;28;20192;-82
2022/08/28 12:14:54;;;;;;;14.63;5.43;;;;;;;32.44;30.69;96796.91;5066342;28;20266;-79
2022/08/28 12:17:21;;;;;;;17.50;5.23;;;;;;;32.50;31.05;96793.41;5066352;28;20283;-84
2022/08/28 12:20:20;;;;;;;11.57;4.63;;;;;;;32.46;30.56;96789.50;5064895;28;20652;-80
2022/08/28 12:22:51;;;;;;;12.97;4.83;;;;;;;32.60;30.31;96799.94;5065760;28;20205;-77
2022/08/28 12:25:30;;;;;;;12.25;4.78;;;;;;;32.68;30.29;96799.72;5067012;28;20263;-79